sensor_id;sensor_type;location;lat;lon;timestamp;temperature;humidity
1091;DHT22;534;48.704;9.122;2023-03-23T04:02:08;15.00;61.00
1091;DHT22;534;48.704;9.122;2023-03-23T04:04:38;15.00;61.60
1091;DHT22;534;48.704;9.122;2023-03-23T04:07:05;15.10;61.10
1091;DHT22;534;48.704;9.122;2023-03-23T04:09:32;15.20;60.80
1091;DHT22;534;48.704;9.122;2023-03-23T04:11:59;15.30;60.70
1091;DHT22;534;48.704;9.122;2023-03-23T04:14:26;15.40;60.60
1091;DHT22;534;48.704;9.122;2023-03-23T04:16:52;15.40;60.60
1091;DHT22;534;48.704;9.122;2023-03-23T04:19:23;15.60;60.30
1091;DHT22;534;48.704;9.122;2023-03-23T04:21:50;15.60;60.10
1091;DHT22;534;48.704;9.122;2023-03-23T04:24:17;15.50;60.00
1091;DHT22;534;48.704;9.122;2023-03-23T04:26:46;15.50;60.30
1091;DHT22;534;48.704;9.122;2023-03-23T04:29:13;15.50;60.30
1091;DHT22;534;48.704;9.122;2023-03-23T04:31:41;15.50;60.30
1091;DHT22;534;48.704;9.122;2023-03-23T04:34:10;15.50;60.20
1091;DHT22;534;48.704;9.122;2023-03-23T04:36:40;15.40;60.70
1091;DHT22;534;48.704;9.122;2023-03-23T04:39:08;15.50;60.60
1091;DHT22;534;48.704;9.122;2023-03-23T04:41:36;15.40;60.40
1091;DHT22;534;48.704;9.122;2023-03-23T04:44:04;15.20;60.60
1091;DHT22;534;48.704;9.122;2023-03-23T04:46:30;15.20;61.40
1091;DHT22;534;48.704;9.122;2023-03-23T04:48:57;15.10;61.00
1091;DHT22;534;48.704;9.122;2023-03-23T04:51:26;15.00;61.70
1091;DHT22;534;48.704;9.122;2023-03-23T04:53:55;14.90;61.80
1091;DHT22;534;48.704;9.122;2023-03-23T04:56:22;14.70;61.90
1091;DHT22;534;48.704;9.122;2023-03-23T04:58:49;14.70;62.30
1091;DHT22;534;48.704;9.122;2023-03-23T05:01:16;14.80;62.00
1091;DHT22;534;48.704;9.122;2023-03-23T05:03:44;14.90;62.00
1091;DHT22;534;48.704;9.122;2023-03-23T05:06:10;14.80;61.90
1091;DHT22;534;48.704;9.122;2023-03-23T05:08:37;14.80;62.50
1091;DHT22;534;48.704;9.122;2023-03-23T05:11:06;14.90;61.70
1091;DHT22;534;48.704;9.122;2023-03-23T05:13:33;14.90;61.70
1091;DHT22;534;48.704;9.122;2023-03-23T05:16:03;14.80;61.80
1091;DHT22;534;48.704;9.122;2023-03-23T05:18:30;14.80;62.10
1091;DHT22;534;48.704;9.122;2023-03-23T05:20:59;14.80;62.50
1091;DHT22;534;48.704;9.122;2023-03-23T05:23:26;14.70;62.40
1091;DHT22;534;48.704;9.122;2023-03-23T05:25:57;14.80;62.40
1091;DHT22;534;48.704;9.122;2023-03-23T05:28:27;14.90;62.30
1091;DHT22;534;48.704;9.122;2023-03-23T05:30:55;14.90;62.10
1091;DHT22;534;48.704;9.122;2023-03-23T05:33:22;14.80;62.10
1091;DHT22;534;48.704;9.122;2023-03-23T05:35:49;14.70;62.50
1091;DHT22;534;48.704;9.122;2023-03-23T05:38:16;14.70;62.20
1091;DHT22;534;48.704;9.122;2023-03-23T05:40:43;14.60;62.50
1091;DHT22;534;48.704;9.122;2023-03-23T05:43:10;14.80;62.00
1091;DHT22;534;48.704;9.122;2023-03-23T05:45:38;14.70;62.40
1091;DHT22;534;48.704;9.122;2023-03-23T05:48:05;14.60;62.50
1091;DHT22;534;48.704;9.122;2023-03-23T05:50:32;14.60;62.40
1091;DHT22;534;48.704;9.122;2023-03-23T05:52:58;14.60;62.50
1091;DHT22;534;48.704;9.122;2023-03-23T05:55:25;14.50;62.80
1091;DHT22;534;48.704;9.122;2023-03-23T05:57:51;14.70;62.70
1091;DHT22;534;48.704;9.122;2023-03-23T06:00:19;14.70;62.60
1091;DHT22;534;48.704;9.122;2023-03-23T06:02:53;14.70;62.60
1091;DHT22;534;48.704;9.122;2023-03-23T06:05:21;14.60;62.60
1091;DHT22;534;48.704;9.122;2023-03-23T06:07:49;14.50;63.70
1091;DHT22;534;48.704;9.122;2023-03-23T06:10:16;14.70;62.50
1091;DHT22;534;48.704;9.122;2023-03-23T06:12:42;14.80;62.40
1091;DHT22;534;48.704;9.122;2023-03-23T06:15:10;14.80;62.70
1091;DHT22;534;48.704;9.122;2023-03-23T06:17:37;14.80;62.00
1091;DHT22;534;48.704;9.122;2023-03-23T06:20:07;14.90;62.30
1091;DHT22;534;48.704;9.122;2023-03-23T06:22:35;14.90;62.20
1091;DHT22;534;48.704;9.122;2023-03-23T06:25:03;15.00;62.20
1091;DHT22;534;48.704;9.122;2023-03-23T06:27:30;15.00;62.20
1091;DHT22;534;48.704;9.122;2023-03-23T06:29:57;15.10;62.00
1091;DHT22;534;48.704;9.122;2023-03-23T06:32:25;15.20;62.30
1091;DHT22;534;48.704;9.122;2023-03-23T06:34:52;15.40;65.50
1091;DHT22;534;48.704;9.122;2023-03-23T06:37:21;15.50;64.20
1091;DHT22;534;48.704;9.122;2023-03-23T06:39:48;15.60;61.40
1091;DHT22;534;48.704;9.122;2023-03-23T06:42:15;15.40;60.90
1091;DHT22;534;48.704;9.122;2023-03-23T06:44:42;15.40;60.90
1091;DHT22;534;48.704;9.122;2023-03-23T06:47:08;15.20;61.80
1091;DHT22;534;48.704;9.122;2023-03-23T06:49:35;15.20;61.70
1091;DHT22;534;48.704;9.122;2023-03-23T06:52:02;15.10;62.00
1091;DHT22;534;48.704;9.122;2023-03-23T06:54:30;15.20;62.10
1091;DHT22;534;48.704;9.122;2023-03-23T06:56:57;15.20;62.00
1091;DHT22;534;48.704;9.122;2023-03-23T06:59:23;15.10;61.70
1091;DHT22;534;48.704;9.122;2023-03-23T07:01:50;15.10;62.30
1091;DHT22;534;48.704;9.122;2023-03-23T07:04:17;15.10;62.00
1091;DHT22;534;48.704;9.122;2023-03-23T07:06:43;15.20;61.70
1091;DHT22;534;48.704;9.122;2023-03-23T07:09:10;15.40;62.00
1091;DHT22;534;48.704;9.122;2023-03-23T07:11:38;15.50;61.30
1091;DHT22;534;48.704;9.122;2023-03-23T07:14:05;15.50;61.00
1091;DHT22;534;48.704;9.122;2023-03-23T07:16:32;15.50;61.10
1091;DHT22;534;48.704;9.122;2023-03-23T07:18:59;15.50;61.30
1091;DHT22;534;48.704;9.122;2023-03-23T07:21:26;15.50;61.60
1091;DHT22;534;48.704;9.122;2023-03-23T07:23:52;15.70;61.40
1091;DHT22;534;48.704;9.122;2023-03-23T07:26:19;15.70;61.50
1091;DHT22;534;48.704;9.122;2023-03-23T07:28:48;15.70;60.90
1091;DHT22;534;48.704;9.122;2023-03-23T07:31:14;15.50;61.40
1091;DHT22;534;48.704;9.122;2023-03-23T07:33:41;15.40;61.90
1091;DHT22;534;48.704;9.122;2023-03-23T07:36:09;15.50;61.40
1091;DHT22;534;48.704;9.122;2023-03-23T07:38:38;15.40;61.90
1091;DHT22;534;48.704;9.122;2023-03-23T07:41:05;15.40;62.00
1091;DHT22;534;48.704;9.122;2023-03-23T07:43:32;15.60;62.00
1091;DHT22;534;48.704;9.122;2023-03-23T07:46:01;15.80;61.50
1091;DHT22;534;48.704;9.122;2023-03-23T07:48:27;15.80;61.50
1091;DHT22;534;48.704;9.122;2023-03-23T07:50:54;15.70;61.40
1091;DHT22;534;48.704;9.122;2023-03-23T07:53:21;15.70;61.50
1091;DHT22;534;48.704;9.122;2023-03-23T07:55:48;15.80;61.90
1091;DHT22;534;48.704;9.122;2023-03-23T07:58:15;15.80;61.60
1091;DHT22;534;48.704;9.122;2023-03-23T08:00:44;15.80;62.20
1091;DHT22;534;48.704;9.122;2023-03-23T08:03:13;15.90;62.30
1091;DHT22;534;48.704;9.122;2023-03-23T08:05:39;16.00;62.30
1091;DHT22;534;48.704;9.122;2023-03-23T08:08:08;16.00;62.00
1091;DHT22;534;48.704;9.122;2023-03-23T08:10:35;16.10;61.70
1091;DHT22;534;48.704;9.122;2023-03-23T08:13:03;16.10;62.30
1091;DHT22;534;48.704;9.122;2023-03-23T08:15:31;16.20;62.20
1091;DHT22;534;48.704;9.122;2023-03-23T08:17:59;16.20;62.20
1091;DHT22;534;48.704;9.122;2023-03-23T08:20:27;16.20;62.10
1091;DHT22;534;48.704;9.122;2023-03-23T08:22:56;16.50;62.50
1091;DHT22;534;48.704;9.122;2023-03-23T08:25:24;16.70;62.10
1091;DHT22;534;48.704;9.122;2023-03-23T08:27:51;16.70;61.60
1091;DHT22;534;48.704;9.122;2023-03-23T08:30:20;16.70;62.40
1091;DHT22;534;48.704;9.122;2023-03-23T08:32:48;16.80;61.40
1091;DHT22;534;48.704;9.122;2023-03-23T08:35:16;16.70;62.30
1091;DHT22;534;48.704;9.122;2023-03-23T08:37:45;16.80;62.20
1091;DHT22;534;48.704;9.122;2023-03-23T08:40:14;16.90;62.40
1091;DHT22;534;48.704;9.122;2023-03-23T08:42:45;16.70;62.60
1091;DHT22;534;48.704;9.122;2023-03-23T08:45:15;16.80;62.90
1091;DHT22;534;48.704;9.122;2023-03-23T08:47:42;16.50;63.20
1091;DHT22;534;48.704;9.122;2023-03-23T08:50:11;16.20;64.10
1091;DHT22;534;48.704;9.122;2023-03-23T08:52:38;16.30;64.20
1091;DHT22;534;48.704;9.122;2023-03-23T08:55:07;16.30;64.40
1091;DHT22;534;48.704;9.122;2023-03-23T08:57:35;16.30;64.80
1091;DHT22;534;48.704;9.122;2023-03-23T09:00:04;16.20;65.00
1091;DHT22;534;48.704;9.122;2023-03-23T09:02:39;16.10;65.50
1091;DHT22;534;48.704;9.122;2023-03-23T09:05:06;16.20;66.00
1091;DHT22;534;48.704;9.122;2023-03-23T09:07:35;16.10;65.80
1091;DHT22;534;48.704;9.122;2023-03-23T09:10:02;16.30;65.50
1091;DHT22;534;48.704;9.122;2023-03-23T09:12:30;16.50;64.90
1091;DHT22;534;48.704;9.122;2023-03-23T09:14:57;16.40;65.30
1091;DHT22;534;48.704;9.122;2023-03-23T09:17:24;16.20;65.90
1091;DHT22;534;48.704;9.122;2023-03-23T09:19:51;16.40;65.60
1091;DHT22;534;48.704;9.122;2023-03-23T09:22:17;16.60;65.10
1091;DHT22;534;48.704;9.122;2023-03-23T09:24:48;16.60;65.10
1091;DHT22;534;48.704;9.122;2023-03-23T09:27:15;16.70;65.10
1091;DHT22;534;48.704;9.122;2023-03-23T09:29:43;16.90;65.20
1091;DHT22;534;48.704;9.122;2023-03-23T09:32:10;16.80;64.60
1091;DHT22;534;48.704;9.122;2023-03-23T09:34:38;16.80;65.00
1091;DHT22;534;48.704;9.122;2023-03-23T09:37:06;16.90;64.00
1091;DHT22;534;48.704;9.122;2023-03-23T09:39:33;17.00;64.10
1091;DHT22;534;48.704;9.122;2023-03-23T09:42:11;17.00;63.60
1091;DHT22;534;48.704;9.122;2023-03-23T09:44:51;16.90;63.90
1091;DHT22;534;48.704;9.122;2023-03-23T09:47:35;16.90;63.80
1091;DHT22;534;48.704;9.122;2023-03-23T09:50:09;16.70;63.90
1091;DHT22;534;48.704;9.122;2023-03-23T09:52:40;16.60;65.20
1091;DHT22;534;48.704;9.122;2023-03-23T09:55:11;16.40;65.40
1091;DHT22;534;48.704;9.122;2023-03-23T09:57:43;16.40;65.40
1091;DHT22;534;48.704;9.122;2023-03-23T10:00:17;16.30;65.60
1091;DHT22;534;48.704;9.122;2023-03-23T10:02:49;16.20;66.20
1091;DHT22;534;48.704;9.122;2023-03-23T10:05:27;16.20;66.30
1091;DHT22;534;48.704;9.122;2023-03-23T10:07:55;16.20;66.60
1091;DHT22;534;48.704;9.122;2023-03-23T10:10:26;16.40;66.90
1091;DHT22;534;48.704;9.122;2023-03-23T10:13:00;16.40;66.10
1091;DHT22;534;48.704;9.122;2023-03-23T10:15:32;16.60;66.00
1091;DHT22;534;48.704;9.122;2023-03-23T10:18:02;16.90;65.20
1091;DHT22;534;48.704;9.122;2023-03-23T10:20:37;16.80;64.10
1091;DHT22;534;48.704;9.122;2023-03-23T10:23:13;16.80;65.40
1091;DHT22;534;48.704;9.122;2023-03-23T10:25:43;16.90;64.60
1091;DHT22;534;48.704;9.122;2023-03-23T10:28:13;16.80;65.00
1091;DHT22;534;48.704;9.122;2023-03-23T10:30:43;16.60;66.10
1091;DHT22;534;48.704;9.122;2023-03-23T10:33:15;16.80;66.20
1091;DHT22;534;48.704;9.122;2023-03-23T10:35:47;17.00;65.90
1091;DHT22;534;48.704;9.122;2023-03-23T10:38:19;17.10;65.10
1091;DHT22;534;48.704;9.122;2023-03-23T10:40:49;17.20;65.10
1091;DHT22;534;48.704;9.122;2023-03-23T10:43:17;17.40;65.40
1091;DHT22;534;48.704;9.122;2023-03-23T10:45:49;17.50;64.60
1091;DHT22;534;48.704;9.122;2023-03-23T10:48:23;17.80;64.30
1091;DHT22;534;48.704;9.122;2023-03-23T10:50:55;17.90;63.20
1091;DHT22;534;48.704;9.122;2023-03-23T10:53:26;18.00;62.80
1091;DHT22;534;48.704;9.122;2023-03-23T10:55:55;18.10;62.80
1091;DHT22;534;48.704;9.122;2023-03-23T10:58:24;18.20;62.60
1091;DHT22;534;48.704;9.122;2023-03-23T11:00:56;18.00;63.50
1091;DHT22;534;48.704;9.122;2023-03-23T11:03:27;18.10;62.80
1091;DHT22;534;48.704;9.122;2023-03-23T11:05:59;18.00;63.20
1091;DHT22;534;48.704;9.122;2023-03-23T11:08:30;17.90;63.60
1091;DHT22;534;48.704;9.122;2023-03-23T11:11:09;17.70;62.80
1091;DHT22;534;48.704;9.122;2023-03-23T11:13:39;17.50;63.90
1091;DHT22;534;48.704;9.122;2023-03-23T11:16:09;17.40;64.20
1091;DHT22;534;48.704;9.122;2023-03-23T11:18:38;17.50;63.80
1091;DHT22;534;48.704;9.122;2023-03-23T11:21:07;17.50;63.90
1091;DHT22;534;48.704;9.122;2023-03-23T11:23:37;17.40;64.20
1091;DHT22;534;48.704;9.122;2023-03-23T11:26:12;17.20;64.80
1091;DHT22;534;48.704;9.122;2023-03-23T11:28:44;17.20;65.70
1091;DHT22;534;48.704;9.122;2023-03-23T11:31:14;17.20;65.80
1091;DHT22;534;48.704;9.122;2023-03-23T11:33:50;17.00;66.30
1091;DHT22;534;48.704;9.122;2023-03-23T11:36:18;17.00;66.60
1091;DHT22;534;48.704;9.122;2023-03-23T11:38:45;17.10;67.20
1091;DHT22;534;48.704;9.122;2023-03-23T11:41:16;17.10;66.10
1091;DHT22;534;48.704;9.122;2023-03-23T11:43:46;17.10;65.70
1091;DHT22;534;48.704;9.122;2023-03-23T11:46:19;17.10;65.80
1091;DHT22;534;48.704;9.122;2023-03-23T11:48:54;17.10;65.30
1091;DHT22;534;48.704;9.122;2023-03-23T11:51:29;17.30;65.70
1091;DHT22;534;48.704;9.122;2023-03-23T11:54:00;17.50;65.80
1091;DHT22;534;48.704;9.122;2023-03-23T11:56:31;17.70;65.20
1091;DHT22;534;48.704;9.122;2023-03-23T11:58:59;17.60;65.10
1091;DHT22;534;48.704;9.122;2023-03-23T12:01:43;17.70;65.00
1091;DHT22;534;48.704;9.122;2023-03-23T12:04:33;17.70;63.00
1091;DHT22;534;48.704;9.122;2023-03-23T12:07:12;17.60;63.90
1091;DHT22;534;48.704;9.122;2023-03-23T12:09:47;17.50;63.60
1091;DHT22;534;48.704;9.122;2023-03-23T12:12:23;17.20;65.00
1091;DHT22;534;48.704;9.122;2023-03-23T12:14:58;17.30;65.20
1091;DHT22;534;48.704;9.122;2023-03-23T12:17:39;17.40;65.30
1091;DHT22;534;48.704;9.122;2023-03-23T12:20:20;17.50;63.90
1091;DHT22;534;48.704;9.122;2023-03-23T12:22:58;17.80;63.60
1091;DHT22;534;48.704;9.122;2023-03-23T12:25:47;18.00;63.60
1091;DHT22;534;48.704;9.122;2023-03-23T12:28:24;18.20;62.20
1091;DHT22;534;48.704;9.122;2023-03-23T12:30:58;18.10;61.30
1091;DHT22;534;48.704;9.122;2023-03-23T12:33:36;18.10;61.60
1091;DHT22;534;48.704;9.122;2023-03-23T12:36:11;18.20;61.30
1091;DHT22;534;48.704;9.122;2023-03-23T12:41:50;18.30;60.40
1091;DHT22;534;48.704;9.122;2023-03-23T12:44:24;18.30;60.10
1091;DHT22;534;48.704;9.122;2023-03-23T12:47:17;18.30;60.30
1091;DHT22;534;48.704;9.122;2023-03-23T12:49:54;18.40;59.90
1091;DHT22;534;48.704;9.122;2023-03-23T12:52:26;18.60;60.40
1091;DHT22;534;48.704;9.122;2023-03-23T12:54:59;18.60;59.50
1091;DHT22;534;48.704;9.122;2023-03-23T12:57:32;18.70;58.60
1091;DHT22;534;48.704;9.122;2023-03-23T13:00:05;18.70;59.00
1091;DHT22;534;48.704;9.122;2023-03-23T13:02:40;18.50;59.10
1091;DHT22;534;48.704;9.122;2023-03-23T13:05:24;18.40;59.90
1091;DHT22;534;48.704;9.122;2023-03-23T13:07:56;18.40;59.70
1091;DHT22;534;48.704;9.122;2023-03-23T13:10:29;18.10;60.50
1091;DHT22;534;48.704;9.122;2023-03-23T13:12:59;18.10;60.10
1091;DHT22;534;48.704;9.122;2023-03-23T13:15:33;17.90;61.20
1091;DHT22;534;48.704;9.122;2023-03-23T13:18:07;17.90;61.60
1091;DHT22;534;48.704;9.122;2023-03-23T13:20:47;17.80;61.70
1091;DHT22;534;48.704;9.122;2023-03-23T13:23:20;18.00;60.90
1091;DHT22;534;48.704;9.122;2023-03-23T13:25:54;18.30;60.00
1091;DHT22;534;48.704;9.122;2023-03-23T13:28:24;18.60;60.20
1091;DHT22;534;48.704;9.122;2023-03-23T13:30:58;18.80;58.80
1091;DHT22;534;48.704;9.122;2023-03-23T13:33:29;18.80;58.80
1091;DHT22;534;48.704;9.122;2023-03-23T13:36:03;18.60;59.20
1091;DHT22;534;48.704;9.122;2023-03-23T13:38:32;18.60;59.40
1091;DHT22;534;48.704;9.122;2023-03-23T13:41:10;18.50;59.10
1091;DHT22;534;48.704;9.122;2023-03-23T13:43:38;18.60;59.00
1091;DHT22;534;48.704;9.122;2023-03-23T13:46:24;18.60;59.30
1091;DHT22;534;48.704;9.122;2023-03-23T13:49:03;18.60;59.00
1091;DHT22;534;48.704;9.122;2023-03-23T13:51:36;18.60;58.60
1091;DHT22;534;48.704;9.122;2023-03-23T13:54:14;18.70;58.90
1091;DHT22;534;48.704;9.122;2023-03-23T13:56:46;18.60;58.20
1091;DHT22;534;48.704;9.122;2023-03-23T13:59:15;18.40;58.60
1091;DHT22;534;48.704;9.122;2023-03-23T14:01:42;18.40;58.10
1091;DHT22;534;48.704;9.122;2023-03-23T14:04:13;18.30;58.20
1091;DHT22;534;48.704;9.122;2023-03-23T14:06:42;18.20;58.70
1091;DHT22;534;48.704;9.122;2023-03-23T14:09:14;18.20;58.60
1091;DHT22;534;48.704;9.122;2023-03-23T14:11:49;18.30;58.60
1091;DHT22;534;48.704;9.122;2023-03-23T14:14:23;18.40;58.10
1091;DHT22;534;48.704;9.122;2023-03-23T14:16:51;18.40;58.30
1091;DHT22;534;48.704;9.122;2023-03-23T14:19:21;18.30;58.80
1091;DHT22;534;48.704;9.122;2023-03-23T14:21:53;18.30;58.90
1091;DHT22;534;48.704;9.122;2023-03-23T14:24:21;18.20;58.50
1091;DHT22;534;48.704;9.122;2023-03-23T14:26:50;18.30;58.50
1091;DHT22;534;48.704;9.122;2023-03-23T14:29:20;18.30;58.00
1091;DHT22;534;48.704;9.122;2023-03-23T14:31:53;18.10;58.70
1091;DHT22;534;48.704;9.122;2023-03-23T14:34:22;18.20;58.30
1091;DHT22;534;48.704;9.122;2023-03-23T14:36:52;18.00;57.90
1091;DHT22;534;48.704;9.122;2023-03-23T14:39:22;17.90;58.30
1091;DHT22;534;48.704;9.122;2023-03-23T14:41:49;17.60;59.10
1091;DHT22;534;48.704;9.122;2023-03-23T14:44:21;17.70;59.00
1091;DHT22;534;48.704;9.122;2023-03-23T14:46:49;17.80;58.90
1091;DHT22;534;48.704;9.122;2023-03-23T14:49:19;17.90;58.70
1091;DHT22;534;48.704;9.122;2023-03-23T14:51:48;17.90;58.90
1091;DHT22;534;48.704;9.122;2023-03-23T14:54:22;17.90;58.00
1091;DHT22;534;48.704;9.122;2023-03-23T14:56:49;17.80;58.40
1091;DHT22;534;48.704;9.122;2023-03-23T14:59:16;17.80;58.30
1091;DHT22;534;48.704;9.122;2023-03-23T15:01:43;17.70;58.50
1091;DHT22;534;48.704;9.122;2023-03-23T15:04:14;17.80;58.30
1091;DHT22;534;48.704;9.122;2023-03-23T15:06:44;17.90;57.70
1091;DHT22;534;48.704;9.122;2023-03-23T15:09:14;17.80;57.00
1091;DHT22;534;48.704;9.122;2023-03-23T15:11:51;17.80;57.80
1091;DHT22;534;48.704;9.122;2023-03-23T15:14:21;17.80;56.80
1091;DHT22;534;48.704;9.122;2023-03-23T15:16:49;17.90;57.30
1091;DHT22;534;48.704;9.122;2023-03-23T15:19:19;17.90;57.80
1091;DHT22;534;48.704;9.122;2023-03-23T15:21:50;17.80;56.90
1091;DHT22;534;48.704;9.122;2023-03-23T15:24:27;17.80;57.20
1091;DHT22;534;48.704;9.122;2023-03-23T15:27:07;17.80;56.70
1091;DHT22;534;48.704;9.122;2023-03-23T15:29:46;17.90;57.20
1091;DHT22;534;48.704;9.122;2023-03-23T15:32:19;18.00;57.00
1091;DHT22;534;48.704;9.122;2023-03-23T15:34:46;17.90;56.90
1091;DHT22;534;48.704;9.122;2023-03-23T15:37:19;17.80;57.50
1091;DHT22;534;48.704;9.122;2023-03-23T15:39:47;17.80;57.50
1091;DHT22;534;48.704;9.122;2023-03-23T15:42:25;17.90;57.10
1091;DHT22;534;48.704;9.122;2023-03-23T15:44:57;17.70;57.50
1091;DHT22;534;48.704;9.122;2023-03-23T15:47:34;17.50;57.90
1091;DHT22;534;48.704;9.122;2023-03-23T15:50:07;17.40;58.20
1091;DHT22;534;48.704;9.122;2023-03-23T15:52:34;17.30;58.30
1091;DHT22;534;48.704;9.122;2023-03-23T15:55:01;17.20;58.70
1091;DHT22;534;48.704;9.122;2023-03-23T15:57:29;17.10;59.20
1091;DHT22;534;48.704;9.122;2023-03-23T15:59:55;17.20;59.10
1091;DHT22;534;48.704;9.122;2023-03-23T16:02:23;17.10;59.10
1091;DHT22;534;48.704;9.122;2023-03-23T16:04:51;17.20;59.20
1091;DHT22;534;48.704;9.122;2023-03-23T16:07:20;17.30;58.80
1091;DHT22;534;48.704;9.122;2023-03-23T16:09:47;17.40;58.80
1091;DHT22;534;48.704;9.122;2023-03-23T16:12:14;17.40;58.70
1091;DHT22;534;48.704;9.122;2023-03-23T16:14:42;17.30;58.40
1091;DHT22;534;48.704;9.122;2023-03-23T16:17:11;17.30;58.90
1091;DHT22;534;48.704;9.122;2023-03-23T16:19:40;17.30;59.00
1091;DHT22;534;48.704;9.122;2023-03-23T16:22:08;17.20;58.90
1091;DHT22;534;48.704;9.122;2023-03-23T16:24:34;17.10;59.50
1091;DHT22;534;48.704;9.122;2023-03-23T16:27:01;17.00;59.40
1091;DHT22;534;48.704;9.122;2023-03-23T16:29:28;16.90;60.10
1091;DHT22;534;48.704;9.122;2023-03-23T16:31:56;16.90;60.10
1091;DHT22;534;48.704;9.122;2023-03-23T16:34:23;17.00;59.40
1091;DHT22;534;48.704;9.122;2023-03-23T16:36:49;16.90;60.00
1091;DHT22;534;48.704;9.122;2023-03-23T16:39:16;17.00;59.70
1091;DHT22;534;48.704;9.122;2023-03-23T16:41:43;16.90;60.00
1091;DHT22;534;48.704;9.122;2023-03-23T16:44:10;16.80;60.40
1091;DHT22;534;48.704;9.122;2023-03-23T16:46:37;16.70;60.70
1091;DHT22;534;48.704;9.122;2023-03-23T16:49:05;16.80;60.90
1091;DHT22;534;48.704;9.122;2023-03-23T16:51:32;16.90;60.60
1091;DHT22;534;48.704;9.122;2023-03-23T16:53:58;16.90;60.90
1091;DHT22;534;48.704;9.122;2023-03-23T16:56:25;16.90;61.20
1091;DHT22;534;48.704;9.122;2023-03-23T16:58:52;17.00;60.90
1091;DHT22;534;48.704;9.122;2023-03-23T17:01:18;17.10;60.50
1091;DHT22;534;48.704;9.122;2023-03-23T17:03:45;17.20;60.80
1091;DHT22;534;48.704;9.122;2023-03-23T17:06:13;17.30;60.50
1091;DHT22;534;48.704;9.122;2023-03-23T17:08:40;17.20;60.40
1091;DHT22;534;48.704;9.122;2023-03-23T17:11:06;17.20;60.50
1091;DHT22;534;48.704;9.122;2023-03-23T17:13:33;17.10;60.50
1091;DHT22;534;48.704;9.122;2023-03-23T17:16:00;17.00;61.20
1091;DHT22;534;48.704;9.122;2023-03-23T17:18:26;16.90;61.30
1091;DHT22;534;48.704;9.122;2023-03-23T17:20:53;17.00;61.40
1091;DHT22;534;48.704;9.122;2023-03-23T17:23:22;17.00;61.30
1091;DHT22;534;48.704;9.122;2023-03-23T17:25:48;17.10;61.50
1091;DHT22;534;48.704;9.122;2023-03-23T17:28:16;17.00;61.40
1091;DHT22;534;48.704;9.122;2023-03-23T17:30:43;17.10;61.50
1091;DHT22;534;48.704;9.122;2023-03-23T17:33:10;17.10;61.40
1091;DHT22;534;48.704;9.122;2023-03-23T17:35:38;17.00;61.90
1091;DHT22;534;48.704;9.122;2023-03-23T17:38:04;17.00;62.10
1091;DHT22;534;48.704;9.122;2023-03-23T17:40:32;16.90;62.10
1091;DHT22;534;48.704;9.122;2023-03-23T17:42:59;16.80;62.30
1091;DHT22;534;48.704;9.122;2023-03-23T17:45:26;16.90;62.30
1091;DHT22;534;48.704;9.122;2023-03-23T17:47:52;16.90;62.20
1091;DHT22;534;48.704;9.122;2023-03-23T17:50:19;17.00;62.20
1091;DHT22;534;48.704;9.122;2023-03-23T17:52:46;16.80;62.50
1091;DHT22;534;48.704;9.122;2023-03-23T17:55:14;16.70;63.10
1091;DHT22;534;48.704;9.122;2023-03-23T17:57:42;16.50;63.50
1091;DHT22;534;48.704;9.122;2023-03-23T18:00:09;16.30;63.90
1091;DHT22;534;48.704;9.122;2023-03-23T18:02:36;16.30;64.20
1091;DHT22;534;48.704;9.122;2023-03-23T18:05:04;16.30;64.10
1091;DHT22;534;48.704;9.122;2023-03-23T18:14:19;16.20;64.90
1091;DHT22;534;48.704;9.122;2023-03-23T18:16:46;16.30;64.40
1091;DHT22;534;48.704;9.122;2023-03-23T18:19:12;16.30;64.60
1091;DHT22;534;48.704;9.122;2023-03-23T18:21:39;16.30;64.40
1091;DHT22;534;48.704;9.122;2023-03-23T18:24:06;16.20;64.70
1091;DHT22;534;48.704;9.122;2023-03-23T18:26:33;16.30;64.70
1091;DHT22;534;48.704;9.122;2023-03-23T18:29:00;16.30;64.50
1091;DHT22;534;48.704;9.122;2023-03-23T18:31:28;16.20;64.70
1091;DHT22;534;48.704;9.122;2023-03-23T18:33:55;16.20;65.00
1091;DHT22;534;48.704;9.122;2023-03-23T18:36:25;16.20;65.10
1091;DHT22;534;48.704;9.122;2023-03-23T18:38:54;16.20;65.50
1091;DHT22;534;48.704;9.122;2023-03-23T18:41:21;16.20;65.10
1091;DHT22;534;48.704;9.122;2023-03-23T18:43:48;16.20;65.30
1091;DHT22;534;48.704;9.122;2023-03-23T18:46:15;16.20;65.30
1091;DHT22;534;48.704;9.122;2023-03-23T18:48:43;16.10;65.60
1091;DHT22;534;48.704;9.122;2023-03-23T18:51:10;16.00;65.70
1091;DHT22;534;48.704;9.122;2023-03-23T18:53:36;16.10;65.70
1091;DHT22;534;48.704;9.122;2023-03-23T18:56:05;16.10;65.70
1091;DHT22;534;48.704;9.122;2023-03-23T18:58:32;16.10;65.80
1091;DHT22;534;48.704;9.122;2023-03-23T19:01:02;16.10;65.80
1091;DHT22;534;48.704;9.122;2023-03-23T19:03:29;16.10;66.00
1091;DHT22;534;48.704;9.122;2023-03-23T19:05:58;16.00;66.00
1091;DHT22;534;48.704;9.122;2023-03-23T19:08:26;15.80;66.20
1091;DHT22;534;48.704;9.122;2023-03-23T19:10:56;15.80;66.30
1091;DHT22;534;48.704;9.122;2023-03-23T19:13:24;15.90;66.10
1091;DHT22;534;48.704;9.122;2023-03-23T19:15:51;15.90;66.10
1091;DHT22;534;48.704;9.122;2023-03-23T19:18:18;16.00;65.80
1091;DHT22;534;48.704;9.122;2023-03-23T19:20:45;16.00;65.70
1091;DHT22;534;48.704;9.122;2023-03-23T19:23:16;16.00;65.60
1091;DHT22;534;48.704;9.122;2023-03-23T19:25:43;16.00;65.50
1091;DHT22;534;48.704;9.122;2023-03-23T19:28:09;16.00;65.60
1091;DHT22;534;48.704;9.122;2023-03-23T19:30:42;16.00;65.40
1091;DHT22;534;48.704;9.122;2023-03-23T19:33:09;16.00;65.30
1091;DHT22;534;48.704;9.122;2023-03-23T19:35:36;16.00;65.50
1091;DHT22;534;48.704;9.122;2023-03-23T19:38:03;15.90;65.60
1091;DHT22;534;48.704;9.122;2023-03-23T19:40:31;16.00;65.60
1091;DHT22;534;48.704;9.122;2023-03-23T19:43:01;16.20;65.30
1091;DHT22;534;48.704;9.122;2023-03-23T19:45:28;16.30;65.00
1091;DHT22;534;48.704;9.122;2023-03-23T19:47:55;16.20;65.10
1091;DHT22;534;48.704;9.122;2023-03-23T19:50:21;16.20;64.90
1091;DHT22;534;48.704;9.122;2023-03-23T19:52:48;16.20;65.30
1091;DHT22;534;48.704;9.122;2023-03-23T19:55:15;16.20;65.10
1091;DHT22;534;48.704;9.122;2023-03-23T19:57:43;16.20;65.30
1091;DHT22;534;48.704;9.122;2023-03-23T20:00:10;16.20;64.70
1091;DHT22;534;48.704;9.122;2023-03-23T20:02:37;16.10;65.30
1091;DHT22;534;48.704;9.122;2023-03-23T20:05:04;16.10;65.80
1091;DHT22;534;48.704;9.122;2023-03-23T20:07:31;16.10;65.60
1091;DHT22;534;48.704;9.122;2023-03-23T20:09:57;16.10;65.80
1091;DHT22;534;48.704;9.122;2023-03-23T20:12:24;16.10;65.50
1091;DHT22;534;48.704;9.122;2023-03-23T20:14:52;16.00;65.80
1091;DHT22;534;48.704;9.122;2023-03-23T20:17:19;16.00;65.90
1091;DHT22;534;48.704;9.122;2023-03-23T20:19:46;16.10;65.70
1091;DHT22;534;48.704;9.122;2023-03-23T20:22:12;16.10;65.60
1091;DHT22;534;48.704;9.122;2023-03-23T20:24:39;16.10;65.40
1091;DHT22;534;48.704;9.122;2023-03-23T20:27:09;16.00;65.70
1091;DHT22;534;48.704;9.122;2023-03-23T20:29:36;16.10;65.70
1091;DHT22;534;48.704;9.122;2023-03-23T20:32:04;16.20;65.50
1091;DHT22;534;48.704;9.122;2023-03-23T20:34:32;16.30;65.30
1091;DHT22;534;48.704;9.122;2023-03-23T20:37:01;16.50;64.90
1091;DHT22;534;48.704;9.122;2023-03-23T20:39:30;16.60;64.30
1091;DHT22;534;48.704;9.122;2023-03-23T20:41:58;16.70;64.20